sensor_id;sensor_type;location;lat;lon;timestamp;temperature;humidity
10889;DHT22;5497;51.388;6.780;2023-02-01T00:01:23;7.10;99.90
10889;DHT22;5497;51.388;6.780;2023-02-01T00:03:53;7.20;99.90
10889;DHT22;5497;51.388;6.780;2023-02-01T00:06:19;7.10;99.90
10889;DHT22;5497;51.388;6.780;2023-02-01T00:08:48;7.20;99.90
10889;DHT22;5497;51.388;6.780;2023-02-01T00:11:14;7.20;99.90
10889;DHT22;5497;51.388;6.780;2023-02-01T00:13:41;7.20;99.90
10889;DHT22;5497;51.388;6.780;2023-02-01T00:16:08;7.20;99.90
10889;DHT22;5497;51.388;6.780;2023-02-01T00:18:38;7.20;99.90
10889;DHT22;5497;51.388;6.780;2023-02-01T00:21:05;7.70;99.90
10889;DHT22;5497;51.388;6.780;2023-02-01T00:23:32;7.20;99.90
10889;DHT22;5497;51.388;6.780;2023-02-01T00:28:28;7.30;99.90
10889;DHT22;5497;51.388;6.780;2023-02-01T00:30:57;7.30;99.90
10889;DHT22;5497;51.388;6.780;2023-02-01T00:33:24;7.30;99.90
10889;DHT22;5497;51.388;6.780;2023-02-01T00:35:51;7.20;99.90
10889;DHT22;5497;51.388;6.780;2023-02-01T00:38:22;7.30;99.90
10889;DHT22;5497;51.388;6.780;2023-02-01T00:40:48;7.30;99.90
10889;DHT22;5497;51.388;6.780;2023-02-01T00:43:15;7.30;99.90
10889;DHT22;5497;51.388;6.780;2023-02-01T00:45:43;7.30;99.90
10889;DHT22;5497;51.388;6.780;2023-02-01T00:48:11;7.40;99.90
10889;DHT22;5497;51.388;6.780;2023-02-01T00:50:40;7.30;99.90
10889;DHT22;5497;51.388;6.780;2023-02-01T00:53:08;7.30;99.90
10889;DHT22;5497;51.388;6.780;2023-02-01T00:55:35;7.30;99.90
10889;DHT22;5497;51.388;6.780;2023-02-01T00:58:02;7.30;99.90
10889;DHT22;5497;51.388;6.780;2023-02-01T01:00:31;7.60;99.90
10889;DHT22;5497;51.388;6.780;2023-02-01T01:02:59;7.20;99.90
10889;DHT22;5497;51.388;6.780;2023-02-01T01:05:26;7.30;99.90
10889;DHT22;5497;51.388;6.780;2023-02-01T01:07:53;7.90;99.90
10889;DHT22;5497;51.388;6.780;2023-02-01T01:10:19;7.30;99.90
10889;DHT22;5497;51.388;6.780;2023-02-01T01:12:46;7.30;99.90
10889;DHT22;5497;51.388;6.780;2023-02-01T01:15:13;7.30;99.90
10889;DHT22;5497;51.388;6.780;2023-02-01T01:17:40;7.40;99.90
10889;DHT22;5497;51.388;6.780;2023-02-01T01:20:09;7.50;99.90
10889;DHT22;5497;51.388;6.780;2023-02-01T01:22:36;7.50;99.90
10889;DHT22;5497;51.388;6.780;2023-02-01T01:25:03;7.50;99.90
10889;DHT22;5497;51.388;6.780;2023-02-01T01:27:30;7.40;99.90
10889;DHT22;5497;51.388;6.780;2023-02-01T01:29:57;7.40;99.90
10889;DHT22;5497;51.388;6.780;2023-02-01T01:32:23;7.60;99.90
10889;DHT22;5497;51.388;6.780;2023-02-01T01:34:50;7.40;99.90
10889;DHT22;5497;51.388;6.780;2023-02-01T01:37:18;7.40;99.90
10889;DHT22;5497;51.388;6.780;2023-02-01T01:39:45;7.30;99.90
10889;DHT22;5497;51.388;6.780;2023-02-01T01:42:12;7.30;99.90
10889;DHT22;5497;51.388;6.780;2023-02-01T01:45:02;7.30;99.90
10889;DHT22;5497;51.388;6.780;2023-02-01T01:47:32;7.30;99.90
10889;DHT22;5497;51.388;6.780;2023-02-01T01:50:00;7.30;99.90
10889;DHT22;5497;51.388;6.780;2023-02-01T01:52:28;7.20;99.90
10889;DHT22;5497;51.388;6.780;2023-02-01T01:54:55;7.20;99.90
10889;DHT22;5497;51.388;6.780;2023-02-01T01:57:25;7.10;99.90
10889;DHT22;5497;51.388;6.780;2023-02-01T01:59:54;7.10;99.90
10889;DHT22;5497;51.388;6.780;2023-02-01T02:02:23;7.00;99.90
10889;DHT22;5497;51.388;6.780;2023-02-01T02:04:50;7.10;99.90
10889;DHT22;5497;51.388;6.780;2023-02-01T02:07:18;7.10;99.90
10889;DHT22;5497;51.388;6.780;2023-02-01T02:09:48;7.10;99.90
10889;DHT22;5497;51.388;6.780;2023-02-01T02:12:15;7.00;99.90
10889;DHT22;5497;51.388;6.780;2023-02-01T02:14:42;7.00;99.90
10889;DHT22;5497;51.388;6.780;2023-02-01T02:17:15;7.00;99.90
10889;DHT22;5497;51.388;6.780;2023-02-01T02:22:53;6.90;99.90
10889;DHT22;5497;51.388;6.780;2023-02-01T02:28:09;6.80;99.90
10889;DHT22;5497;51.388;6.780;2023-02-01T02:30:46;6.70;99.90
10889;DHT22;5497;51.388;6.780;2023-02-01T02:36:18;6.60;99.90
10889;DHT22;5497;51.388;6.780;2023-02-01T02:38:47;6.60;99.90
10889;DHT22;5497;51.388;6.780;2023-02-01T02:41:17;6.50;99.90
10889;DHT22;5497;51.388;6.780;2023-02-01T02:43:59;6.50;99.90
10889;DHT22;5497;51.388;6.780;2023-02-01T02:46:46;6.40;99.90
10889;DHT22;5497;51.388;6.780;2023-02-01T02:49:33;6.40;99.90
10889;DHT22;5497;51.388;6.780;2023-02-01T02:52:08;6.30;99.90
10889;DHT22;5497;51.388;6.780;2023-02-01T02:54:54;6.20;99.90
10889;DHT22;5497;51.388;6.780;2023-02-01T02:57:24;6.20;99.90
10889;DHT22;5497;51.388;6.780;2023-02-01T03:00:11;6.20;99.90
10889;DHT22;5497;51.388;6.780;2023-02-01T03:02:56;6.20;99.90
10889;DHT22;5497;51.388;6.780;2023-02-01T03:05:42;6.20;99.90
10889;DHT22;5497;51.388;6.780;2023-02-01T03:08:12;6.20;99.90
10889;DHT22;5497;51.388;6.780;2023-02-01T03:10:47;6.20;99.90
10889;DHT22;5497;51.388;6.780;2023-02-01T03:13:18;6.20;99.90
10889;DHT22;5497;51.388;6.780;2023-02-01T03:15:47;6.30;99.90
10889;DHT22;5497;51.388;6.780;2023-02-01T03:18:17;6.30;99.90
10889;DHT22;5497;51.388;6.780;2023-02-01T03:20:46;6.30;99.90
10889;DHT22;5497;51.388;6.780;2023-02-01T03:23:16;6.20;99.90
10889;DHT22;5497;51.388;6.780;2023-02-01T03:25:45;6.30;99.90
10889;DHT22;5497;51.388;6.780;2023-02-01T03:28:13;6.30;99.90
10889;DHT22;5497;51.388;6.780;2023-02-01T03:30:42;6.40;99.90
10889;DHT22;5497;51.388;6.780;2023-02-01T03:33:11;6.40;99.90
10889;DHT22;5497;51.388;6.780;2023-02-01T03:35:48;6.50;99.90
10889;DHT22;5497;51.388;6.780;2023-02-01T03:38:20;6.50;99.90
10889;DHT22;5497;51.388;6.780;2023-02-01T03:40:52;6.60;99.90
10889;DHT22;5497;51.388;6.780;2023-02-01T03:43:20;6.60;99.90
10889;DHT22;5497;51.388;6.780;2023-02-01T03:45:48;6.70;99.90
10889;DHT22;5497;51.388;6.780;2023-02-01T03:48:16;7.20;99.90
10889;DHT22;5497;51.388;6.780;2023-02-01T03:50:44;6.70;99.90
10889;DHT22;5497;51.388;6.780;2023-02-01T03:53:13;6.70;99.90
10889;DHT22;5497;51.388;6.780;2023-02-01T03:55:45;6.70;99.90
10889;DHT22;5497;51.388;6.780;2023-02-01T03:58:12;6.70;99.90
10889;DHT22;5497;51.388;6.780;2023-02-01T04:00:40;6.70;99.90
10889;DHT22;5497;51.388;6.780;2023-02-01T04:03:07;6.70;99.90
10889;DHT22;5497;51.388;6.780;2023-02-01T04:05:33;6.70;99.90
10889;DHT22;5497;51.388;6.780;2023-02-01T04:08:04;6.60;99.90
10889;DHT22;5497;51.388;6.780;2023-02-01T04:10:31;6.60;99.90
10889;DHT22;5497;51.388;6.780;2023-02-01T04:12:59;6.60;99.90
10889;DHT22;5497;51.388;6.780;2023-02-01T04:15:26;6.60;99.90
10889;DHT22;5497;51.388;6.780;2023-02-01T04:17:52;6.50;99.90
10889;DHT22;5497;51.388;6.780;2023-02-01T04:20:19;6.40;99.90
10889;DHT22;5497;51.388;6.780;2023-02-01T04:22:46;6.30;99.90
10889;DHT22;5497;51.388;6.780;2023-02-01T04:25:13;6.30;99.90
10889;DHT22;5497;51.388;6.780;2023-02-01T04:27:39;6.30;99.90
10889;DHT22;5497;51.388;6.780;2023-02-01T04:30:08;6.30;99.90
10889;DHT22;5497;51.388;6.780;2023-02-01T04:32:35;6.30;99.90
10889;DHT22;5497;51.388;6.780;2023-02-01T04:35:02;6.30;99.90
10889;DHT22;5497;51.388;6.780;2023-02-01T04:37:29;6.30;99.90
10889;DHT22;5497;51.388;6.780;2023-02-01T04:39:56;6.40;99.90
10889;DHT22;5497;51.388;6.780;2023-02-01T04:42:22;6.30;99.90
10889;DHT22;5497;51.388;6.780;2023-02-01T04:44:49;6.30;99.90
10889;DHT22;5497;51.388;6.780;2023-02-01T04:47:17;6.30;99.90
10889;DHT22;5497;51.388;6.780;2023-02-01T04:49:44;6.30;99.90
10889;DHT22;5497;51.388;6.780;2023-02-01T04:52:11;6.40;99.90
10889;DHT22;5497;51.388;6.780;2023-02-01T04:54:37;6.40;99.90
10889;DHT22;5497;51.388;6.780;2023-02-01T04:57:04;6.50;99.90
10889;DHT22;5497;51.388;6.780;2023-02-01T04:59:31;6.50;99.90
10889;DHT22;5497;51.388;6.780;2023-02-01T05:01:57;6.50;99.90
10889;DHT22;5497;51.388;6.780;2023-02-01T05:04:25;6.40;99.90
10889;DHT22;5497;51.388;6.780;2023-02-01T05:06:52;6.40;99.90
10889;DHT22;5497;51.388;6.780;2023-02-01T05:09:19;6.40;99.90
10889;DHT22;5497;51.388;6.780;2023-02-01T05:11:47;6.40;99.90
10889;DHT22;5497;51.388;6.780;2023-02-01T05:14:31;6.30;99.90
10889;DHT22;5497;51.388;6.780;2023-02-01T05:16:58;6.20;99.90
10889;DHT22;5497;51.388;6.780;2023-02-01T05:19:26;6.20;99.90
10889;DHT22;5497;51.388;6.780;2023-02-01T05:21:52;6.20;99.90
10889;DHT22;5497;51.388;6.780;2023-02-01T05:24:19;6.20;99.90
10889;DHT22;5497;51.388;6.780;2023-02-01T05:26:46;6.20;99.90
10889;DHT22;5497;51.388;6.780;2023-02-01T05:29:12;6.20;99.90
10889;DHT22;5497;51.388;6.780;2023-02-01T05:31:39;6.10;99.90
10889;DHT22;5497;51.388;6.780;2023-02-01T05:34:06;6.10;99.90
10889;DHT22;5497;51.388;6.780;2023-02-01T05:36:34;6.10;99.90
10889;DHT22;5497;51.388;6.780;2023-02-01T05:39:01;6.00;99.90
10889;DHT22;5497;51.388;6.780;2023-02-01T05:41:28;6.00;99.90
10889;DHT22;5497;51.388;6.780;2023-02-01T05:43:55;6.00;99.90
10889;DHT22;5497;51.388;6.780;2023-02-01T05:46:21;6.00;99.90
10889;DHT22;5497;51.388;6.780;2023-02-01T05:48:48;6.00;99.90
10889;DHT22;5497;51.388;6.780;2023-02-01T05:51:15;5.90;99.90
10889;DHT22;5497;51.388;6.780;2023-02-01T05:53:43;5.90;99.90
10889;DHT22;5497;51.388;6.780;2023-02-01T05:56:09;5.90;99.90
10889;DHT22;5497;51.388;6.780;2023-02-01T05:58:36;5.90;99.90
10889;DHT22;5497;51.388;6.780;2023-02-01T06:01:03;5.80;99.90
10889;DHT22;5497;51.388;6.780;2023-02-01T06:03:30;5.80;99.90
10889;DHT22;5497;51.388;6.780;2023-02-01T06:05:59;5.80;99.90
10889;DHT22;5497;51.388;6.780;2023-02-01T06:08:26;5.70;99.90
10889;DHT22;5497;51.388;6.780;2023-02-01T06:10:58;5.70;99.90
10889;DHT22;5497;51.388;6.780;2023-02-01T06:13:25;5.40;99.90
10889;DHT22;5497;51.388;6.780;2023-02-01T06:15:51;5.80;99.90
10889;DHT22;5497;51.388;6.780;2023-02-01T06:18:18;5.90;99.90
10889;DHT22;5497;51.388;6.780;2023-02-01T06:20:51;6.10;99.90
10889;DHT22;5497;51.388;6.780;2023-02-01T06:23:17;6.10;99.90
10889;DHT22;5497;51.388;6.780;2023-02-01T06:25:44;6.20;99.90
10889;DHT22;5497;51.388;6.780;2023-02-01T06:28:12;6.60;99.90
10889;DHT22;5497;51.388;6.780;2023-02-01T06:30:39;6.40;99.90
10889;DHT22;5497;51.388;6.780;2023-02-01T06:33:14;6.40;99.90
10889;DHT22;5497;51.388;6.780;2023-02-01T06:35:41;6.50;99.90
10889;DHT22;5497;51.388;6.780;2023-02-01T06:38:09;6.50;99.90
10889;DHT22;5497;51.388;6.780;2023-02-01T06:40:36;6.50;99.90
10889;DHT22;5497;51.388;6.780;2023-02-01T06:43:03;6.60;99.90
10889;DHT22;5497;51.388;6.780;2023-02-01T06:45:31;6.60;99.90
10889;DHT22;5497;51.388;6.780;2023-02-01T06:47:58;6.70;99.90
10889;DHT22;5497;51.388;6.780;2023-02-01T06:50:24;6.70;99.90
10889;DHT22;5497;51.388;6.780;2023-02-01T06:52:51;6.70;99.90
10889;DHT22;5497;51.388;6.780;2023-02-01T06:55:18;6.70;99.90
10889;DHT22;5497;51.388;6.780;2023-02-01T06:57:44;6.80;99.90
10889;DHT22;5497;51.388;6.780;2023-02-01T07:00:11;6.80;99.90
10889;DHT22;5497;51.388;6.780;2023-02-01T07:02:40;6.80;99.90
10889;DHT22;5497;51.388;6.780;2023-02-01T07:05:07;6.90;99.90
10889;DHT22;5497;51.388;6.780;2023-02-01T07:07:33;6.90;99.90
10889;DHT22;5497;51.388;6.780;2023-02-01T07:10:00;6.90;99.90
10889;DHT22;5497;51.388;6.780;2023-02-01T07:12:27;6.90;99.90
10889;DHT22;5497;51.388;6.780;2023-02-01T07:14:53;6.90;99.90
10889;DHT22;5497;51.388;6.780;2023-02-01T07:17:20;6.90;99.90
10889;DHT22;5497;51.388;6.780;2023-02-01T07:19:48;6.90;99.90
10889;DHT22;5497;51.388;6.780;2023-02-01T07:22:16;6.90;99.90
10889;DHT22;5497;51.388;6.780;2023-02-01T07:24:42;7.00;99.90
10889;DHT22;5497;51.388;6.780;2023-02-01T07:27:09;7.00;99.90
10889;DHT22;5497;51.388;6.780;2023-02-01T07:29:36;7.00;99.90
10889;DHT22;5497;51.388;6.780;2023-02-01T07:32:02;7.00;99.90
10889;DHT22;5497;51.388;6.780;2023-02-01T07:34:29;7.00;99.90
10889;DHT22;5497;51.388;6.780;2023-02-01T07:36:58;7.00;99.90
10889;DHT22;5497;51.388;6.780;2023-02-01T07:39:27;7.10;99.90
10889;DHT22;5497;51.388;6.780;2023-02-01T07:41:57;7.10;99.90
10889;DHT22;5497;51.388;6.780;2023-02-01T07:44:24;7.10;99.90
10889;DHT22;5497;51.388;6.780;2023-02-01T07:46:50;7.10;99.90
10889;DHT22;5497;51.388;6.780;2023-02-01T07:49:17;7.20;99.90
10889;DHT22;5497;51.388;6.780;2023-02-01T07:51:44;7.20;99.90
10889;DHT22;5497;51.388;6.780;2023-02-01T07:54:12;7.20;99.90
10889;DHT22;5497;51.388;6.780;2023-02-01T07:56:39;7.30;99.90
10889;DHT22;5497;51.388;6.780;2023-02-01T07:59:06;7.20;99.90
10889;DHT22;5497;51.388;6.780;2023-02-01T08:01:33;7.30;99.90
10889;DHT22;5497;51.388;6.780;2023-02-01T08:03:59;7.30;99.90
10889;DHT22;5497;51.388;6.780;2023-02-01T08:06:26;7.30;99.90
10889;DHT22;5497;51.388;6.780;2023-02-01T08:08:53;7.40;99.90
10889;DHT22;5497;51.388;6.780;2023-02-01T08:11:22;7.40;99.90
10889;DHT22;5497;51.388;6.780;2023-02-01T08:13:49;7.40;99.90
10889;DHT22;5497;51.388;6.780;2023-02-01T08:16:16;7.40;99.90
10889;DHT22;5497;51.388;6.780;2023-02-01T08:18:43;7.40;99.90
10889;DHT22;5497;51.388;6.780;2023-02-01T08:21:11;7.50;99.90
10889;DHT22;5497;51.388;6.780;2023-02-01T08:23:39;8.10;99.90
10889;DHT22;5497;51.388;6.780;2023-02-01T08:26:07;7.50;99.90
10889;DHT22;5497;51.388;6.780;2023-02-01T08:28:35;7.50;99.90
10889;DHT22;5497;51.388;6.780;2023-02-01T08:31:05;7.50;99.90
10889;DHT22;5497;51.388;6.780;2023-02-01T08:33:32;7.60;99.90
10889;DHT22;5497;51.388;6.780;2023-02-01T08:36:00;7.60;99.90
10889;DHT22;5497;51.388;6.780;2023-02-01T08:38:27;7.60;99.90
10889;DHT22;5497;51.388;6.780;2023-02-01T08:40:54;8.60;99.90
10889;DHT22;5497;51.388;6.780;2023-02-01T08:43:20;7.70;99.90
10889;DHT22;5497;51.388;6.780;2023-02-01T08:45:48;7.70;99.90
10889;DHT22;5497;51.388;6.780;2023-02-01T08:48:15;7.70;99.90
10889;DHT22;5497;51.388;6.780;2023-02-01T08:50:42;7.70;99.90
10889;DHT22;5497;51.388;6.780;2023-02-01T08:53:09;7.70;99.90
10889;DHT22;5497;51.388;6.780;2023-02-01T08:55:37;7.80;99.90
10889;DHT22;5497;51.388;6.780;2023-02-01T08:58:04;7.80;99.90
10889;DHT22;5497;51.388;6.780;2023-02-01T09:00:31;7.90;99.90
10889;DHT22;5497;51.388;6.780;2023-02-01T09:02:59;7.90;99.90
10889;DHT22;5497;51.388;6.780;2023-02-01T09:05:25;8.00;99.90
10889;DHT22;5497;51.388;6.780;2023-02-01T09:07:53;8.00;99.90
10889;DHT22;5497;51.388;6.780;2023-02-01T09:10:20;8.00;99.90
10889;DHT22;5497;51.388;6.780;2023-02-01T09:12:46;8.00;99.90
10889;DHT22;5497;51.388;6.780;2023-02-01T09:15:13;7.90;99.90
10889;DHT22;5497;51.388;6.780;2023-02-01T09:17:40;7.90;99.90
10889;DHT22;5497;51.388;6.780;2023-02-01T09:20:10;7.80;99.90
10889;DHT22;5497;51.388;6.780;2023-02-01T09:22:37;7.80;99.90
10889;DHT22;5497;51.388;6.780;2023-02-01T09:25:04;7.80;99.90
10889;DHT22;5497;51.388;6.780;2023-02-01T09:27:31;7.80;99.90
10889;DHT22;5497;51.388;6.780;2023-02-01T09:29:58;7.80;99.90
10889;DHT22;5497;51.388;6.780;2023-02-01T09:32:25;7.80;99.90
10889;DHT22;5497;51.388;6.780;2023-02-01T09:34:51;7.90;99.90
10889;DHT22;5497;51.388;6.780;2023-02-01T09:37:20;8.00;99.90
10889;DHT22;5497;51.388;6.780;2023-02-01T09:39:46;8.20;99.90
10889;DHT22;5497;51.388;6.780;2023-02-01T09:42:19;8.20;99.90
10889;DHT22;5497;51.388;6.780;2023-02-01T09:44:53;8.40;99.90
10889;DHT22;5497;51.388;6.780;2023-02-01T09:47:23;8.40;99.90
10889;DHT22;5497;51.388;6.780;2023-02-01T09:49:53;8.40;99.90
10889;DHT22;5497;51.388;6.780;2023-02-01T09:52:25;8.50;99.90
10889;DHT22;5497;51.388;6.780;2023-02-01T09:54:54;8.40;99.90
10889;DHT22;5497;51.388;6.780;2023-02-01T09:57:28;8.40;99.90
10889;DHT22;5497;51.388;6.780;2023-02-01T10:00:00;8.50;99.90
10889;DHT22;5497;51.388;6.780;2023-02-01T10:02:37;8.70;99.90
10889;DHT22;5497;51.388;6.780;2023-02-01T10:05:10;8.60;99.90
10889;DHT22;5497;51.388;6.780;2023-02-01T10:07:41;8.60;99.90
10889;DHT22;5497;51.388;6.780;2023-02-01T10:10:11;8.80;99.90
10889;DHT22;5497;51.388;6.780;2023-02-01T10:13:00;8.80;99.90
10889;DHT22;5497;51.388;6.780;2023-02-01T10:15:31;8.90;99.90
10889;DHT22;5497;51.388;6.780;2023-02-01T10:20:49;9.10;99.90
10889;DHT22;5497;51.388;6.780;2023-02-01T10:23:23;9.20;99.90
10889;DHT22;5497;51.388;6.780;2023-02-01T10:25:53;10.70;99.90
10889;DHT22;5497;51.388;6.780;2023-02-01T10:28:20;9.40;99.90
10889;DHT22;5497;51.388;6.780;2023-02-01T10:30:48;9.50;99.90
10889;DHT22;5497;51.388;6.780;2023-02-01T10:33:16;9.50;99.90
10889;DHT22;5497;51.388;6.780;2023-02-01T10:35:44;9.50;99.90
10889;DHT22;5497;51.388;6.780;2023-02-01T10:38:12;9.50;99.90
10889;DHT22;5497;51.388;6.780;2023-02-01T10:40:42;9.40;99.90
10889;DHT22;5497;51.388;6.780;2023-02-01T10:43:09;9.30;99.90
10889;DHT22;5497;51.388;6.780;2023-02-01T10:45:42;9.10;99.90
10889;DHT22;5497;51.388;6.780;2023-02-01T10:48:09;9.00;99.90
10889;DHT22;5497;51.388;6.780;2023-02-01T10:50:37;8.90;99.90
10889;DHT22;5497;51.388;6.780;2023-02-01T10:53:06;8.80;99.90
10889;DHT22;5497;51.388;6.780;2023-02-01T10:55:37;8.80;99.90
10889;DHT22;5497;51.388;6.780;2023-02-01T10:58:07;8.70;99.90
10889;DHT22;5497;51.388;6.780;2023-02-01T11:00:42;8.80;99.90
10889;DHT22;5497;51.388;6.780;2023-02-01T11:03:19;8.80;99.90
10889;DHT22;5497;51.388;6.780;2023-02-01T11:05:46;8.90;99.90
10889;DHT22;5497;51.388;6.780;2023-02-01T11:08:14;8.90;99.90
10889;DHT22;5497;51.388;6.780;2023-02-01T11:10:42;9.00;99.90
10889;DHT22;5497;51.388;6.780;2023-02-01T11:13:13;9.20;99.90
10889;DHT22;5497;51.388;6.780;2023-02-01T11:15:42;9.40;99.90
10889;DHT22;5497;51.388;6.780;2023-02-01T11:18:14;9.50;99.90
10889;DHT22;5497;51.388;6.780;2023-02-01T11:20:42;9.70;99.90
10889;DHT22;5497;51.388;6.780;2023-02-01T11:23:12;9.70;99.90
10889;DHT22;5497;51.388;6.780;2023-02-01T11:25:40;9.60;99.90
10889;DHT22;5497;51.388;6.780;2023-02-01T11:28:15;9.50;99.90
10889;DHT22;5497;51.388;6.780;2023-02-01T11:30:43;9.40;99.90
10889;DHT22;5497;51.388;6.780;2023-02-01T11:33:12;9.30;99.90
10889;DHT22;5497;51.388;6.780;2023-02-01T11:35:39;9.20;99.90
10889;DHT22;5497;51.388;6.780;2023-02-01T11:38:12;9.20;99.90
10889;DHT22;5497;51.388;6.780;2023-02-01T11:40:40;9.20;99.90
10889;DHT22;5497;51.388;6.780;2023-02-01T11:43:08;9.20;99.90
10889;DHT22;5497;51.388;6.780;2023-02-01T11:45:37;9.30;99.90
10889;DHT22;5497;51.388;6.780;2023-02-01T11:48:07;9.40;99.90
10889;DHT22;5497;51.388;6.780;2023-02-01T11:50:35;9.40;99.90
10889;DHT22;5497;51.388;6.780;2023-02-01T11:53:10;9.40;99.90
10889;DHT22;5497;51.388;6.780;2023-02-01T11:55:50;9.40;99.90
10889;DHT22;5497;51.388;6.780;2023-02-01T11:58:29;9.30;99.90
10889;DHT22;5497;51.388;6.780;2023-02-01T12:01:05;9.20;99.90
10889;DHT22;5497;51.388;6.780;2023-02-01T12:03:58;9.10;99.90
10889;DHT22;5497;51.388;6.780;2023-02-01T12:06:28;9.10;99.90
10889;DHT22;5497;51.388;6.780;2023-02-01T12:09:13;9.20;99.90
10889;DHT22;5497;51.388;6.780;2023-02-01T12:11:45;9.20;99.90
10889;DHT22;5497;51.388;6.780;2023-02-01T12:14:19;9.20;99.90
10889;DHT22;5497;51.388;6.780;2023-02-01T12:16:52;9.10;99.90
10889;DHT22;5497;51.388;6.780;2023-02-01T12:19:31;9.10;99.90
10889;DHT22;5497;51.388;6.780;2023-02-01T12:22:03;9.00;99.90
10889;DHT22;5497;51.388;6.780;2023-02-01T12:27:35;9.10;99.90
10889;DHT22;5497;51.388;6.780;2023-02-01T12:30:12;9.10;99.90
10889;DHT22;5497;51.388;6.780;2023-02-01T12:32:47;9.10;99.90
10889;DHT22;5497;51.388;6.780;2023-02-01T12:35:22;8.70;99.90
10889;DHT22;5497;51.388;6.780;2023-02-01T12:37:57;9.00;99.90
10889;DHT22;5497;51.388;6.780;2023-02-01T12:40:32;9.00;99.90
10889;DHT22;5497;51.388;6.780;2023-02-01T12:43:04;8.90;99.90
10889;DHT22;5497;51.388;6.780;2023-02-01T12:45:31;8.90;99.90
10889;DHT22;5497;51.388;6.780;2023-02-01T12:48:03;8.90;99.90
10889;DHT22;5497;51.388;6.780;2023-02-01T12:50:38;8.90;99.90
10889;DHT22;5497;51.388;6.780;2023-02-01T12:53:06;8.90;99.90
10889;DHT22;5497;51.388;6.780;2023-02-01T12:55:36;8.90;99.90
10889;DHT22;5497;51.388;6.780;2023-02-01T12:58:04;8.80;99.90
10889;DHT22;5497;51.388;6.780;2023-02-01T13:00:35;8.90;99.90
10889;DHT22;5497;51.388;6.780;2023-02-01T13:03:05;8.90;99.90
10889;DHT22;5497;51.388;6.780;2023-02-01T13:05:41;8.90;99.90
10889;DHT22;5497;51.388;6.780;2023-02-01T13:08:11;9.00;99.90
10889;DHT22;5497;51.388;6.780;2023-02-01T13:10:40;9.00;99.90
10889;DHT22;5497;51.388;6.780;2023-02-01T13:13:10;9.00;99.90
10889;DHT22;5497;51.388;6.780;2023-02-01T13:15:39;9.00;99.90
10889;DHT22;5497;51.388;6.780;2023-02-01T13:18:11;9.00;99.90
10889;DHT22;5497;51.388;6.780;2023-02-01T13:20:42;9.00;99.90
10889;DHT22;5497;51.388;6.780;2023-02-01T13:23:11;9.00;99.90
10889;DHT22;5497;51.388;6.780;2023-02-01T13:25:43;8.90;99.90
10889;DHT22;5497;51.388;6.780;2023-02-01T13:28:14;8.90;99.90
10889;DHT22;5497;51.388;6.780;2023-02-01T13:30:48;9.00;99.90
10889;DHT22;5497;51.388;6.780;2023-02-01T13:33:26;9.00;99.90
10889;DHT22;5497;51.388;6.780;2023-02-01T13:36:17;9.00;99.90
10889;DHT22;5497;51.388;6.780;2023-02-01T13:38:52;9.00;99.90
10889;DHT22;5497;51.388;6.780;2023-02-01T13:41:25;9.10;99.90
10889;DHT22;5497;51.388;6.780;2023-02-01T13:43:54;9.00;99.90
10889;DHT22;5497;51.388;6.780;2023-02-01T13:46:22;9.00;99.90
10889;DHT22;5497;51.388;6.780;2023-02-01T13:48:50;9.10;99.90
10889;DHT22;5497;51.388;6.780;2023-02-01T13:51:18;9.10;99.90
10889;DHT22;5497;51.388;6.780;2023-02-01T13:53:55;9.10;99.90
10889;DHT22;5497;51.388;6.780;2023-02-01T13:56:22;9.10;99.90
10889;DHT22;5497;51.388;6.780;2023-02-01T13:58:50;9.60;99.90
10889;DHT22;5497;51.388;6.780;2023-02-01T14:01:31;9.30;99.90
10889;DHT22;5497;51.388;6.780;2023-02-01T14:04:01;9.30;99.90
10889;DHT22;5497;51.388;6.780;2023-02-01T14:06:44;9.40;99.90
10889;DHT22;5497;51.388;6.780;2023-02-01T14:09:18;9.50;99.90
10889;DHT22;5497;51.388;6.780;2023-02-01T14:11:46;9.40;99.90
10889;DHT22;5497;51.388;6.780;2023-02-01T14:20:05;9.50;99.90
10889;DHT22;5497;51.388;6.780;2023-02-01T14:22:52;9.50;99.90
10889;DHT22;5497;51.388;6.780;2023-02-01T14:25:31;9.50;99.90
10889;DHT22;5497;51.388;6.780;2023-02-01T14:27:58;9.50;99.90
10889;DHT22;5497;51.388;6.780;2023-02-01T14:30:25;9.50;99.90
10889;DHT22;5497;51.388;6.780;2023-02-01T14:32:51;9.50;99.90
10889;DHT22;5497;51.388;6.780;2023-02-01T14:35:21;9.50;99.90
10889;DHT22;5497;51.388;6.780;2023-02-01T14:37:51;9.40;99.90
10889;DHT22;5497;51.388;6.780;2023-02-01T14:40:19;9.40;99.90
10889;DHT22;5497;51.388;6.780;2023-02-01T14:42:47;9.40;99.90
10889;DHT22;5497;51.388;6.780;2023-02-01T14:50:44;9.50;99.90
10889;DHT22;5497;51.388;6.780;2023-02-01T14:53:19;9.40;99.90
10889;DHT22;5497;51.388;6.780;2023-02-01T14:55:51;9.40;99.90
10889;DHT22;5497;51.388;6.780;2023-02-01T14:58:21;9.30;99.90
10889;DHT22;5497;51.388;6.780;2023-02-01T15:00:51;9.40;99.90
10889;DHT22;5497;51.388;6.780;2023-02-01T15:06:12;9.30;99.90
10889;DHT22;5497;51.388;6.780;2023-02-01T15:08:40;9.30;99.90
10889;DHT22;5497;51.388;6.780;2023-02-01T15:11:08;9.30;99.90
10889;DHT22;5497;51.388;6.780;2023-02-01T15:13:39;9.30;99.90
10889;DHT22;5497;51.388;6.780;2023-02-01T15:16:09;9.20;99.90
10889;DHT22;5497;51.388;6.780;2023-02-01T15:18:36;9.20;99.90
10889;DHT22;5497;51.388;6.780;2023-02-01T15:21:04;9.30;99.90
10889;DHT22;5497;51.388;6.780;2023-02-01T15:23:32;9.30;99.90
10889;DHT22;5497;51.388;6.780;2023-02-01T15:25:59;9.30;99.90
10889;DHT22;5497;51.388;6.780;2023-02-01T15:28:25;9.30;99.90
10889;DHT22;5497;51.388;6.780;2023-02-01T15:30:53;9.30;99.90
10889;DHT22;5497;51.388;6.780;2023-02-01T15:33:20;9.30;99.90
10889;DHT22;5497;51.388;6.780;2023-02-01T15:35:48;9.20;99.90
10889;DHT22;5497;51.388;6.780;2023-02-01T15:38:21;9.20;99.90
10889;DHT22;5497;51.388;6.780;2023-02-01T15:40:54;9.20;99.90
10889;DHT22;5497;51.388;6.780;2023-02-01T15:43:21;9.20;99.90
10889;DHT22;5497;51.388;6.780;2023-02-01T15:45:48;9.20;99.90
10889;DHT22;5497;51.388;6.780;2023-02-01T15:48:19;9.40;99.90
10889;DHT22;5497;51.388;6.780;2023-02-01T15:50:48;9.20;99.90
10889;DHT22;5497;51.388;6.780;2023-02-01T15:53:16;9.10;99.90
10889;DHT22;5497;51.388;6.780;2023-02-01T15:55:45;9.10;99.90
10889;DHT22;5497;51.388;6.780;2023-02-01T15:58:15;9.10;99.90
10889;DHT22;5497;51.388;6.780;2023-02-01T16:00:43;9.10;99.90
10889;DHT22;5497;51.388;6.780;2023-02-01T16:03:23;9.10;99.90
10889;DHT22;5497;51.388;6.780;2023-02-01T16:05:54;9.10;99.90
10889;DHT22;5497;51.388;6.780;2023-02-01T16:08:22;9.10;99.90
10889;DHT22;5497;51.388;6.780;2023-02-01T16:10:51;9.50;99.90
10889;DHT22;5497;51.388;6.780;2023-02-01T16:13:18;9.10;99.90
10889;DHT22;5497;51.388;6.780;2023-02-01T16:15:45;9.10;99.90
10889;DHT22;5497;51.388;6.780;2023-02-01T16:18:12;9.10;99.90
10889;DHT22;5497;51.388;6.780;2023-02-01T16:20:40;9.10;99.90
10889;DHT22;5497;51.388;6.780;2023-02-01T16:23:07;9.10;99.90
10889;DHT22;5497;51.388;6.780;2023-02-01T16:25:34;9.10;99.90
10889;DHT22;5497;51.388;6.780;2023-02-01T16:28:02;9.10;99.90
10889;DHT22;5497;51.388;6.780;2023-02-01T16:30:30;9.10;99.90
10889;DHT22;5497;51.388;6.780;2023-02-01T16:32:57;9.00;99.90
10889;DHT22;5497;51.388;6.780;2023-02-01T16:35:25;9.00;99.90
10889;DHT22;5497;51.388;6.780;2023-02-01T16:37:52;9.00;99.90
10889;DHT22;5497;51.388;6.780;2023-02-01T16:43:00;8.90;99.90
10889;DHT22;5497;51.388;6.780;2023-02-01T16:45:28;8.90;99.90
10889;DHT22;5497;51.388;6.780;2023-02-01T16:47:56;8.90;99.90
10889;DHT22;5497;51.388;6.780;2023-02-01T16:53:05;8.90;99.90